createdAt,value
2017-11-30T00:04:56.118Z,55.2
2017-11-30T00:21:43.309Z,54.8
2017-11-30T00:38:30.569Z,54.8
2017-11-30T00:55:17.866Z,54.4
2017-11-30T01:12:05.042Z,54.4
2017-11-30T01:28:52.246Z,54.4
2017-11-30T01:45:39.435Z,54.4
2017-11-30T02:02:26.723Z,54.0
2017-11-30T02:19:13.969Z,54.0
2017-11-30T02:36:01.133Z,53.2
2017-11-30T02:52:48.331Z,53.2
2017-11-30T03:09:35.382Z,53.2
2017-11-30T03:26:22.558Z,53.2
2017-11-30T03:43:09.892Z,53.2
2017-11-30T03:59:56.667Z,53.2
2017-11-30T04:16:43.688Z,52.8
2017-11-30T04:33:30.696Z,52.8
2017-11-30T04:50:17.198Z,52.8
2017-11-30T05:07:03.633Z,52.8
2017-11-30T05:23:50.000Z,52.8
2017-11-30T05:40:36.511Z,52.4
2017-11-30T05:57:23.082Z,52.4
2017-11-30T06:14:09.707Z,52.4
2017-11-30T06:30:56.280Z,52.4
2017-11-30T06:47:42.918Z,52.4
2017-11-30T07:04:29.665Z,52.4
2017-11-30T07:21:16.395Z,52.4
2017-11-30T07:38:03.050Z,52.4
2017-11-30T07:54:49.864Z,52.4
2017-11-30T08:11:36.362Z,52.4
2017-11-30T08:28:23.377Z,52.4
2017-11-30T08:45:09.994Z,52.4
2017-11-30T09:18:44.065Z,52.0
2017-11-30T09:35:32.011Z,52.4
2017-11-30T09:52:18.442Z,52.4
2017-11-30T10:09:05.736Z,52.0
2017-11-30T10:25:52.736Z,52.0
2017-11-30T10:42:39.889Z,52.0
2017-11-30T10:59:26.945Z,52.0
2017-11-30T11:16:14.257Z,52.0
2017-11-30T11:33:01.516Z,52.0
2017-11-30T11:49:48.884Z,52.0
2017-11-30T12:06:36.479Z,52.0
2017-11-30T12:23:23.817Z,52.0
2017-11-30T12:40:10.982Z,52.0
2017-11-30T12:56:58.435Z,52.4
2017-11-30T13:13:45.919Z,52.4
2017-11-30T13:30:34.199Z,52.4
2017-11-30T13:47:20.922Z,52.4
2017-11-30T14:04:08.508Z,53.2
2017-11-30T14:20:56.121Z,53.2
2017-11-30T14:37:43.819Z,53.2
2017-11-30T14:54:31.673Z,53.2
2017-11-30T15:11:19.712Z,53.2
2017-11-30T15:28:07.264Z,53.6
2017-11-30T15:44:54.892Z,53.6
2017-11-30T16:01:42.638Z,54.0
2017-11-30T16:18:30.438Z,54.4
2017-11-30T16:35:18.334Z,54.0
2017-11-30T16:52:06.349Z,53.6
2017-11-30T17:08:54.337Z,53.2
2017-11-30T17:25:41.761Z,53.6
2017-11-30T17:42:29.471Z,53.6
2017-11-30T17:59:17.143Z,54.0
2017-11-30T18:16:04.933Z,54.4
2017-11-30T18:32:52.645Z,54.4
2017-11-30T18:49:40.537Z,54.4
2017-11-30T19:06:28.300Z,55.2
2017-11-30T19:23:16.151Z,55.2
2017-11-30T19:40:04.113Z,55.2
2017-11-30T19:56:51.394Z,55.6
2017-11-30T20:13:38.899Z,55.6
2017-11-30T20:30:26.354Z,55.6
2017-11-30T20:47:13.905Z,56.0
2017-11-30T21:04:01.514Z,56.0
2017-11-30T21:20:49.332Z,56.0
2017-11-30T21:37:37.041Z,56.0
2017-11-30T21:54:24.733Z,56.0
2017-11-30T22:11:12.500Z,56.0
2017-11-30T22:28:00.296Z,56.0
2017-11-30T22:44:47.855Z,56.0
2017-11-30T23:01:35.459Z,56.8
2017-11-30T23:18:23.222Z,56.0
2017-11-30T23:35:11.083Z,55.2
2017-11-30T23:51:58.857Z,55.2
